createdAt,value
2016-09-28T00:00:15.957Z,1014.96
2016-09-28T00:01:16.144Z,1014.95
2016-09-28T00:02:16.036Z,1014.97
2016-09-28T00:03:15.684Z,1014.96
2016-09-28T00:04:15.905Z,1014.99
2016-09-28T00:05:15.897Z,1014.99
2016-09-28T00:06:15.975Z,1014.98
2016-09-28T00:07:15.820Z,1014.94
2016-09-28T00:08:16.085Z,1015.01
2016-09-28T00:09:15.903Z,1014.95
2016-09-28T00:10:16.047Z,1015
2016-09-28T00:11:15.836Z,1014.93
2016-09-28T00:12:15.854Z,1014.96
2016-09-28T00:13:16.744Z,1014.92
2016-09-28T00:14:16.668Z,1014.88
2016-09-28T00:15:16.734Z,1014.84
2016-09-28T00:16:16.227Z,1014.83
2016-09-28T00:17:16.096Z,1014.79
2016-09-28T00:18:16.070Z,1014.79
2016-09-28T00:19:16.200Z,1014.73
2016-09-28T00:20:16.452Z,1014.73
2016-09-28T00:21:16.293Z,1014.71
2016-09-28T00:22:16.287Z,1014.65
2016-09-28T00:23:16.694Z,1014.72
2016-09-28T00:24:16.325Z,1014.69
2016-09-28T00:25:16.248Z,1014.72
2016-09-28T00:26:17.013Z,1014.67
2016-09-28T00:27:16.556Z,1014.69
2016-09-28T00:28:16.169Z,1014.66
2016-09-28T00:29:16.372Z,1014.67
2016-09-28T00:30:16.281Z,1014.65
2016-09-28T00:31:16.349Z,1014.68
2016-09-28T00:32:16.404Z,1014.64
2016-09-28T00:33:16.727Z,1014.66
2016-09-28T00:34:16.525Z,1014.66
2016-09-28T00:35:16.333Z,1014.68
2016-09-28T00:36:16.377Z,1014.62
2016-09-28T00:37:16.571Z,1014.67
2016-09-28T00:38:16.584Z,1014.65
2016-09-28T00:39:16.691Z,1014.65
2016-09-28T00:40:16.854Z,1014.65
2016-09-28T00:41:16.539Z,1014.65
2016-09-28T00:42:16.611Z,1014.7
2016-09-28T00:43:16.800Z,1014.65
2016-09-28T00:44:16.505Z,1014.69
2016-09-28T00:45:16.985Z,1014.66
2016-09-28T00:46:16.601Z,1014.65
2016-09-28T00:47:16.882Z,1014.66
2016-09-28T00:48:17.412Z,1014.68
2016-09-28T00:49:17.072Z,1014.66
2016-09-28T00:50:17.179Z,1014.71
2016-09-28T00:51:17.274Z,1014.75
2016-09-28T00:52:16.985Z,1014.8
2016-09-28T00:53:16.711Z,1014.83
2016-09-28T00:54:16.716Z,1014.84
2016-09-28T00:55:17.166Z,1014.87
2016-09-28T00:56:17.044Z,1014.92
2016-09-28T00:57:16.725Z,1014.9
2016-09-28T00:58:16.930Z,1014.9
2016-09-28T00:59:17.048Z,1014.91
2016-09-28T01:00:16.901Z,1014.96
2016-09-28T01:01:16.795Z,1014.98
2016-09-28T01:02:16.925Z,1014.96
2016-09-28T01:03:17.097Z,1014.94
2016-09-28T01:04:17.006Z,1014.93
2016-09-28T01:05:16.964Z,1014.95
2016-09-28T01:06:17.243Z,1014.99
2016-09-28T01:07:17.076Z,1014.99
2016-09-28T01:08:17.027Z,1014.97
2016-09-28T01:09:16.972Z,1014.99
2016-09-28T01:10:17.345Z,1014.96
2016-09-28T01:11:17.092Z,1014.99
2016-09-28T01:12:17.575Z,1015.03
2016-09-28T01:13:17.342Z,1015.01
2016-09-28T01:14:17.105Z,1014.97
2016-09-28T01:15:17.160Z,1015.01
2016-09-28T01:16:17.523Z,1014.94
2016-09-28T01:17:17.642Z,1014.96
2016-09-28T01:18:17.346Z,1014.93
2016-09-28T01:19:17.216Z,1014.94
2016-09-28T01:20:17.420Z,1014.98
2016-09-28T01:21:17.420Z,1014.97
2016-09-28T01:22:17.332Z,1014.94
2016-09-28T01:23:17.291Z,1014.96
2016-09-28T01:24:17.577Z,1014.96
2016-09-28T01:25:17.432Z,1014.99
2016-09-28T01:26:17.380Z,1014.93
2016-09-28T01:27:17.498Z,1014.97
2016-09-28T01:28:17.404Z,1014.9
2016-09-28T01:29:17.549Z,1014.93
2016-09-28T01:30:17.516Z,1014.89
2016-09-28T01:31:17.443Z,1014.88
2016-09-28T01:32:17.594Z,1014.89
2016-09-28T01:33:17.507Z,1014.91
2016-09-28T01:34:17.738Z,1014.9
2016-09-28T01:35:17.708Z,1014.93
2016-09-28T01:36:17.607Z,1014.91
2016-09-28T01:37:17.696Z,1014.88
2016-09-28T01:38:17.819Z,1014.88
2016-09-28T01:39:17.814Z,1014.85
2016-09-28T01:40:17.687Z,1014.86
2016-09-28T01:41:17.702Z,1014.76
2016-09-28T01:42:17.638Z,1014.79
2016-09-28T01:43:17.602Z,1014.67
2016-09-28T01:44:17.874Z,1014.64
2016-09-28T01:45:17.787Z,1014.65
2016-09-28T01:46:18.061Z,1014.64
2016-09-28T01:47:17.743Z,1014.65
2016-09-28T01:48:17.754Z,1014.69
2016-09-28T01:49:17.957Z,1014.65
2016-09-28T01:50:17.746Z,1014.66
2016-09-28T01:51:18.213Z,1014.69
2016-09-28T01:52:17.892Z,1014.69
2016-09-28T01:53:18.060Z,1014.66
2016-09-28T01:54:18.100Z,1014.66
2016-09-28T01:55:18.057Z,1014.69
2016-09-28T01:56:18.145Z,1014.65
2016-09-28T01:57:18.141Z,1014.62
2016-09-28T01:58:18.173Z,1014.57
2016-09-28T01:59:18.069Z,1014.6
2016-09-28T02:00:18.232Z,1014.54
2016-09-28T02:01:18.098Z,1014.49
2016-09-28T02:02:18.074Z,1014.46
2016-09-28T02:03:18.290Z,1014.41
2016-09-28T02:04:18.185Z,1014.39
2016-09-28T02:05:18.192Z,1014.39
2016-09-28T02:06:18.101Z,1014.33
2016-09-28T02:07:18.513Z,1014.31
2016-09-28T02:08:18.084Z,1014.35
2016-09-28T02:09:18.211Z,1014.34
2016-09-28T02:10:18.207Z,1014.42
2016-09-28T02:11:18.393Z,1014.43
2016-09-28T02:12:18.344Z,1014.44
2016-09-28T02:13:18.360Z,1014.38
2016-09-28T02:14:18.315Z,1014.36
2016-09-28T02:15:18.325Z,1014.32
2016-09-28T02:16:18.430Z,1014.34
2016-09-28T02:17:18.318Z,1014.35
2016-09-28T02:18:18.388Z,1014.35
2016-09-28T02:19:18.449Z,1014.35
2016-09-28T02:20:18.401Z,1014.33
2016-09-28T02:21:18.443Z,1014.36
2016-09-28T02:22:18.866Z,1014.34
2016-09-28T02:23:18.435Z,1014.34
2016-09-28T02:24:18.954Z,1014.35
2016-09-28T02:25:18.724Z,1014.32
2016-09-28T02:26:18.603Z,1014.33
2016-09-28T02:27:18.734Z,1014.37
2016-09-28T02:28:18.507Z,1014.37
2016-09-28T02:29:18.681Z,1014.37
2016-09-28T02:30:18.694Z,1014.32
2016-09-28T02:31:18.786Z,1014.34
2016-09-28T02:32:18.682Z,1014.3
2016-09-28T02:33:18.816Z,1014.35
2016-09-28T02:34:19.091Z,1014.28
2016-09-28T02:35:18.718Z,1014.29
2016-09-28T02:36:19.051Z,1014.35
2016-09-28T02:37:18.663Z,1014.39
2016-09-28T02:38:19.294Z,1014.4
2016-09-28T02:39:18.793Z,1014.44
2016-09-28T02:40:19.445Z,1014.4
2016-09-28T02:41:19.023Z,1014.46
2016-09-28T02:42:18.973Z,1014.47
2016-09-28T02:43:18.878Z,1014.45
2016-09-28T02:44:19.021Z,1014.39
2016-09-28T02:45:19.058Z,1014.4
2016-09-28T02:46:18.961Z,1014.42
2016-09-28T02:47:18.918Z,1014.45
2016-09-28T02:48:18.994Z,1014.48
2016-09-28T02:49:18.971Z,1014.44
2016-09-28T02:50:18.981Z,1014.4
2016-09-28T02:51:19.339Z,1014.46
2016-09-28T02:52:19.048Z,1014.5
2016-09-28T02:53:19.052Z,1014.56
2016-09-28T02:54:19.248Z,1014.58
2016-09-28T02:55:19.070Z,1014.61
2016-09-28T02:56:19.063Z,1014.62
2016-09-28T02:57:19.030Z,1014.58
2016-09-28T02:58:19.262Z,1014.55
2016-09-28T02:59:19.397Z,1014.52
2016-09-28T03:00:19.422Z,1014.47
2016-09-28T03:01:19.499Z,1014.44
2016-09-28T03:02:19.604Z,1014.45
2016-09-28T03:03:19.400Z,1014.49
2016-09-28T03:04:19.552Z,1014.51
2016-09-28T03:05:19.672Z,1014.62
2016-09-28T03:06:19.397Z,1014.65
2016-09-28T03:07:19.507Z,1014.68
2016-09-28T03:08:19.493Z,1014.69
2016-09-28T03:09:19.694Z,1014.65
2016-09-28T03:10:19.346Z,1014.62
2016-09-28T03:11:19.452Z,1014.57
2016-09-28T03:12:19.489Z,1014.59
2016-09-28T03:13:19.489Z,1014.65
2016-09-28T03:14:19.422Z,1014.69
2016-09-28T03:15:19.621Z,1014.63
2016-09-28T03:16:19.854Z,1014.63
2016-09-28T03:17:19.628Z,1014.53
2016-09-28T03:18:19.478Z,1014.47
2016-09-28T03:19:19.631Z,1014.47
2016-09-28T03:20:19.621Z,1014.51
2016-09-28T03:21:19.820Z,1014.59
2016-09-28T03:22:19.585Z,1014.62
2016-09-28T03:23:19.755Z,1014.62
2016-09-28T03:24:19.896Z,1014.68
2016-09-28T03:25:19.680Z,1014.68
2016-09-28T03:26:19.795Z,1014.62
2016-09-28T03:27:19.713Z,1014.6
2016-09-28T03:28:20.231Z,1014.61
2016-09-28T03:29:19.746Z,1014.56
2016-09-28T03:30:19.830Z,1014.55
2016-09-28T03:31:20.313Z,1014.53
2016-09-28T03:32:19.732Z,1014.51
2016-09-28T03:33:20.156Z,1014.47
2016-09-28T03:34:19.836Z,1014.38
2016-09-28T03:35:20.185Z,1014.32
2016-09-28T03:36:20.095Z,1014.26
2016-09-28T03:37:20.118Z,1014.26
2016-09-28T03:38:20.051Z,1014.29
2016-09-28T03:39:20.402Z,1014.28
2016-09-28T03:40:19.951Z,1014.26
2016-09-28T03:41:20.147Z,1014.28
2016-09-28T03:42:20.160Z,1014.29
2016-09-28T03:43:20.055Z,1014.29
2016-09-28T03:44:20.268Z,1014.29
2016-09-28T03:45:20.152Z,1014.24
2016-09-28T03:46:20.219Z,1014.27
2016-09-28T03:47:20.637Z,1014.27
2016-09-28T03:48:20.211Z,1014.34
2016-09-28T03:49:20.118Z,1014.33
2016-09-28T03:50:20.273Z,1014.35
2016-09-28T03:51:20.704Z,1014.28
2016-09-28T03:52:20.285Z,1014.23
2016-09-28T03:53:20.200Z,1014.15
2016-09-28T03:54:20.261Z,1014.12
2016-09-28T03:55:20.286Z,1014.09
2016-09-28T03:56:20.346Z,1014.07
2016-09-28T03:57:20.230Z,1014.08
2016-09-28T03:58:20.877Z,1014.13
2016-09-28T03:59:20.719Z,1014.12
2016-09-28T04:00:20.808Z,1014.13
2016-09-28T04:01:20.414Z,1014.07
2016-09-28T04:02:20.490Z,1013.98
2016-09-28T04:03:20.667Z,1013.98
2016-09-28T04:04:20.503Z,1013.9
2016-09-28T04:05:20.436Z,1013.9
2016-09-28T04:06:20.861Z,1013.87
2016-09-28T04:07:20.726Z,1013.88
2016-09-28T04:08:20.699Z,1013.89
2016-09-28T04:09:20.486Z,1013.89
2016-09-28T04:10:20.468Z,1013.89
2016-09-28T04:11:20.884Z,1013.89
2016-09-28T04:12:20.915Z,1013.86
2016-09-28T04:13:20.808Z,1013.87
2016-09-28T04:14:20.667Z,1013.86
2016-09-28T04:15:20.686Z,1013.94
2016-09-28T04:16:21.257Z,1013.86
2016-09-28T04:17:21.033Z,1013.8
2016-09-28T04:18:21.132Z,1013.77
2016-09-28T04:19:21.027Z,1013.78
2016-09-28T04:20:21.165Z,1013.77
2016-09-28T04:21:20.892Z,1013.72
2016-09-28T04:22:20.746Z,1013.64
2016-09-28T04:23:21.679Z,1013.6
2016-09-28T04:24:21.073Z,1013.58
2016-09-28T04:25:20.866Z,1013.54
2016-09-28T04:26:21.060Z,1013.49
2016-09-28T04:27:20.935Z,1013.55
2016-09-28T04:28:21.272Z,1013.51
2016-09-28T04:29:21.072Z,1013.58
2016-09-28T04:30:21.115Z,1013.58
2016-09-28T04:31:21.017Z,1013.61
2016-09-28T04:32:21.023Z,1013.62
2016-09-28T04:33:21.337Z,1013.65
2016-09-28T04:34:21.511Z,1013.7
2016-09-28T04:35:21.547Z,1013.74
2016-09-28T04:36:21.187Z,1013.75
2016-09-28T04:37:21.348Z,1013.71
2016-09-28T04:38:21.150Z,1013.67
2016-09-28T04:39:21.534Z,1013.58
2016-09-28T04:40:21.124Z,1013.5
2016-09-28T04:41:21.176Z,1013.48
2016-09-28T04:42:21.228Z,1013.46
2016-09-28T04:43:21.357Z,1013.5
2016-09-28T04:44:21.352Z,1013.5
2016-09-28T04:45:21.411Z,1013.45
2016-09-28T04:46:21.336Z,1013.43
2016-09-28T04:47:21.327Z,1013.37
2016-09-28T04:48:22.116Z,1013.32
2016-09-28T04:49:21.546Z,1013.35
2016-09-28T04:50:21.335Z,1013.32
2016-09-28T04:51:21.693Z,1013.33
2016-09-28T04:52:21.575Z,1013.38
2016-09-28T04:53:21.456Z,1013.39
2016-09-28T04:54:21.533Z,1013.38
2016-09-28T04:55:21.399Z,1013.42
2016-09-28T04:56:21.521Z,1013.47
2016-09-28T04:57:21.415Z,1013.46
2016-09-28T04:58:21.794Z,1013.47
2016-09-28T04:59:21.850Z,1013.45
2016-09-28T05:00:21.468Z,1013.44
2016-09-28T05:01:21.508Z,1013.43
2016-09-28T05:02:21.730Z,1013.47
2016-09-28T05:03:21.571Z,1013.45
2016-09-28T05:04:21.518Z,1013.53
2016-09-28T05:05:21.585Z,1013.44
2016-09-28T05:06:21.886Z,1013.46
2016-09-28T05:07:21.781Z,1013.47
2016-09-28T05:08:21.641Z,1013.48
2016-09-28T05:09:21.826Z,1013.52
2016-09-28T05:10:21.876Z,1013.51
2016-09-28T05:11:21.790Z,1013.57
2016-09-28T05:12:21.694Z,1013.58
2016-09-28T05:13:21.733Z,1013.61
2016-09-28T05:14:22.171Z,1013.62
2016-09-28T05:15:22.118Z,1013.62
2016-09-28T05:16:21.671Z,1013.68
2016-09-28T05:17:21.704Z,1013.71
2016-09-28T05:18:21.754Z,1013.71
2016-09-28T05:19:21.768Z,1013.73
2016-09-28T05:20:22.603Z,1013.76
2016-09-28T05:21:21.845Z,1013.71
2016-09-28T05:22:22.317Z,1013.7
2016-09-28T05:23:21.922Z,1013.69
2016-09-28T05:24:22.154Z,1013.64
2016-09-28T05:25:22.100Z,1013.65
2016-09-28T05:26:22.338Z,1013.62
2016-09-28T05:27:22.302Z,1013.59
2016-09-28T05:28:22.267Z,1013.6
2016-09-28T05:29:22.464Z,1013.54
2016-09-28T05:30:22.116Z,1013.6
2016-09-28T05:31:22.170Z,1013.66
2016-09-28T05:32:22.400Z,1013.69
2016-09-28T05:33:22.227Z,1013.61
2016-09-28T05:34:22.197Z,1013.69
2016-09-28T05:35:22.132Z,1013.76
2016-09-28T05:36:22.385Z,1013.76
2016-09-28T05:37:22.156Z,1013.76
2016-09-28T05:38:22.174Z,1013.77
2016-09-28T05:39:22.537Z,1013.76
2016-09-28T05:40:22.445Z,1013.77
2016-09-28T05:41:22.682Z,1013.74
2016-09-28T05:42:22.459Z,1013.72
2016-09-28T05:43:22.284Z,1013.79
2016-09-28T05:44:22.496Z,1013.83
2016-09-28T05:45:22.520Z,1013.79
2016-09-28T05:46:22.275Z,1013.81
2016-09-28T05:47:22.557Z,1013.79
2016-09-28T05:48:22.355Z,1013.79
2016-09-28T05:49:22.626Z,1013.8
2016-09-28T05:50:22.767Z,1013.82
2016-09-28T05:51:22.771Z,1013.79
2016-09-28T05:52:22.434Z,1013.79
2016-09-28T05:53:22.541Z,1013.87
2016-09-28T05:54:22.439Z,1013.85
2016-09-28T05:55:22.631Z,1013.86
2016-09-28T05:56:22.718Z,1013.87
2016-09-28T05:57:22.589Z,1013.87
2016-09-28T05:58:22.739Z,1013.86
2016-09-28T05:59:22.844Z,1013.83
2016-09-28T06:00:22.695Z,1013.87
2016-09-28T06:01:22.846Z,1013.82
2016-09-28T06:02:23.102Z,1013.82
2016-09-28T06:03:22.959Z,1013.86
2016-09-28T06:04:22.803Z,1013.85
2016-09-28T06:05:22.907Z,1013.84
2016-09-28T06:06:22.823Z,1013.83
2016-09-28T06:07:22.981Z,1013.81
2016-09-28T06:08:23.049Z,1013.82
2016-09-28T06:09:22.781Z,1013.81
2016-09-28T06:10:22.783Z,1013.83
2016-09-28T06:11:23.021Z,1013.8
2016-09-28T06:12:22.818Z,1013.84
2016-09-28T06:13:23.407Z,1013.84
2016-09-28T06:14:22.850Z,1013.88
2016-09-28T06:15:23.202Z,1013.86
2016-09-28T06:16:23.048Z,1013.87
2016-09-28T06:17:23.432Z,1013.8
2016-09-28T06:18:23.066Z,1013.8
2016-09-28T06:19:23.127Z,1013.76
2016-09-28T06:20:23.096Z,1013.67
2016-09-28T06:21:23.425Z,1013.6
2016-09-28T06:22:23.219Z,1013.61
2016-09-28T06:23:23.098Z,1013.6
2016-09-28T06:24:23.417Z,1013.62
2016-09-28T06:25:23.585Z,1013.65
2016-09-28T06:26:23.412Z,1013.63
2016-09-28T06:27:23.633Z,1013.66
2016-09-28T06:28:23.146Z,1013.66
2016-09-28T06:29:23.237Z,1013.72
2016-09-28T06:30:23.357Z,1013.71
2016-09-28T06:31:23.442Z,1013.78
2016-09-28T06:32:23.549Z,1013.73
2016-09-28T06:33:23.820Z,1013.7
2016-09-28T06:34:23.411Z,1013.69
2016-09-28T06:35:24.126Z,1013.65
2016-09-28T06:36:23.634Z,1013.7
2016-09-28T06:37:23.373Z,1013.73
2016-09-28T06:38:23.595Z,1013.75
2016-09-28T06:39:23.491Z,1013.73
2016-09-28T06:40:23.476Z,1013.74
2016-09-28T06:41:23.522Z,1013.65
2016-09-28T06:42:23.454Z,1013.66
2016-09-28T06:43:23.696Z,1013.58
2016-09-28T06:44:24.016Z,1013.59
2016-09-28T06:45:23.818Z,1013.53
2016-09-28T06:46:23.761Z,1013.59
2016-09-28T06:47:23.499Z,1013.59
2016-09-28T06:48:23.678Z,1013.58
2016-09-28T06:49:23.538Z,1013.58
2016-09-28T06:50:23.814Z,1013.51
2016-09-28T06:51:23.672Z,1013.51
2016-09-28T06:52:23.619Z,1013.49
2016-09-28T06:53:23.792Z,1013.53
2016-09-28T06:54:23.728Z,1013.5
2016-09-28T06:55:23.748Z,1013.45
2016-09-28T06:56:23.773Z,1013.54
2016-09-28T06:57:23.940Z,1013.53
2016-09-28T06:58:23.909Z,1013.6
2016-09-28T06:59:23.919Z,1013.56
2016-09-28T07:00:23.829Z,1013.54
2016-09-28T07:01:24.016Z,1013.52
2016-09-28T07:02:24.163Z,1013.58
2016-09-28T07:03:24.297Z,1013.47
2016-09-28T07:04:24.006Z,1013.53
2016-09-28T07:05:24.022Z,1013.57
2016-09-28T07:06:24.033Z,1013.55
2016-09-28T07:07:23.930Z,1013.53
2016-09-28T07:08:24.182Z,1013.61
2016-09-28T07:09:24.346Z,1013.55
2016-09-28T07:10:24.109Z,1013.57
2016-09-28T07:11:24.585Z,1013.65
2016-09-28T07:12:24.351Z,1013.61
2016-09-28T07:13:24.184Z,1013.54
2016-09-28T07:14:24.087Z,1013.57
2016-09-28T07:15:24.163Z,1013.61
2016-09-28T07:16:24.071Z,1013.65
2016-09-28T07:17:24.159Z,1013.64
2016-09-28T07:18:24.085Z,1013.68
2016-09-28T07:19:24.679Z,1013.68
2016-09-28T07:20:24.201Z,1013.68
2016-09-28T07:21:24.290Z,1013.71
2016-09-28T07:22:24.924Z,1013.78
2016-09-28T07:23:24.609Z,1013.75
2016-09-28T07:24:24.415Z,1013.78
2016-09-28T07:25:24.545Z,1013.8
2016-09-28T07:26:24.487Z,1013.82
2016-09-28T07:27:24.408Z,1013.79
2016-09-28T07:28:25.477Z,1013.85
2016-09-28T07:29:24.438Z,1013.86
2016-09-28T07:30:24.515Z,1013.96
2016-09-28T07:31:24.466Z,1013.94
2016-09-28T07:32:24.574Z,1013.97
2016-09-28T07:33:24.515Z,1014.01
2016-09-28T07:34:24.518Z,1014
2016-09-28T07:35:24.487Z,1014.01
2016-09-28T07:36:24.825Z,1014.06
2016-09-28T07:37:24.635Z,1014.05
2016-09-28T07:38:25.019Z,1014.08
2016-09-28T07:39:24.794Z,1014.07
2016-09-28T07:40:24.866Z,1014.1
2016-09-28T07:41:24.741Z,1014.1
2016-09-28T07:42:24.798Z,1014.1
2016-09-28T07:43:24.917Z,1014.01
2016-09-28T07:44:24.776Z,1014.06
2016-09-28T07:45:24.837Z,1014.08
2016-09-28T07:46:24.835Z,1014.08
2016-09-28T07:47:24.890Z,1013.94
2016-09-28T07:48:24.898Z,1013.92
2016-09-28T07:49:24.850Z,1014.01
2016-09-28T07:50:25.108Z,1013.92
2016-09-28T07:51:24.969Z,1013.87
2016-09-28T07:52:24.919Z,1013.9
2016-09-28T07:53:24.932Z,1013.87
2016-09-28T07:54:25.113Z,1013.81
2016-09-28T07:55:24.984Z,1013.84
2016-09-28T07:56:25.257Z,1013.83
2016-09-28T07:57:24.957Z,1013.79
2016-09-28T07:58:25.562Z,1013.84
2016-09-28T07:59:25.019Z,1013.84
2016-09-28T08:00:25.112Z,1013.83
2016-09-28T08:01:25.348Z,1013.73
2016-09-28T08:02:25.403Z,1013.73
2016-09-28T08:03:25.174Z,1013.71
2016-09-28T08:04:25.224Z,1013.67
2016-09-28T08:05:25.344Z,1013.62
2016-09-28T08:06:25.198Z,1013.61
2016-09-28T08:07:25.095Z,1013.65
2016-09-28T08:08:25.470Z,1013.72
2016-09-28T08:09:25.448Z,1013.7
2016-09-28T08:10:25.533Z,1013.71
2016-09-28T08:11:25.203Z,1013.71
2016-09-28T08:12:25.421Z,1013.65
2016-09-28T08:13:25.380Z,1013.64
2016-09-28T08:14:25.577Z,1013.69
2016-09-28T08:15:25.515Z,1013.7
2016-09-28T08:16:25.654Z,1013.66
2016-09-28T08:17:25.501Z,1013.62
2016-09-28T08:18:25.657Z,1013.6
2016-09-28T08:19:25.555Z,1013.59
2016-09-28T08:20:25.586Z,1013.57
2016-09-28T08:21:25.646Z,1013.55
2016-09-28T08:22:25.613Z,1013.58
2016-09-28T08:23:25.434Z,1013.58
2016-09-28T08:24:25.564Z,1013.68
2016-09-28T08:25:25.573Z,1013.62
2016-09-28T08:26:25.552Z,1013.52
2016-09-28T08:27:25.562Z,1013.43
2016-09-28T08:28:25.590Z,1013.49
2016-09-28T08:29:25.635Z,1013.45
2016-09-28T08:30:25.643Z,1013.45
2016-09-28T08:31:25.973Z,1013.5
2016-09-28T08:32:25.705Z,1013.53
2016-09-28T08:33:25.713Z,1013.52
2016-09-28T08:34:25.721Z,1013.56
2016-09-28T08:35:25.814Z,1013.59
2016-09-28T08:36:25.846Z,1013.71
2016-09-28T08:37:25.854Z,1013.74
2016-09-28T08:38:26.022Z,1013.67
2016-09-28T08:39:26.060Z,1013.64
2016-09-28T08:40:25.909Z,1013.64
2016-09-28T08:41:26.159Z,1013.68
2016-09-28T08:42:25.990Z,1013.64
2016-09-28T08:43:25.945Z,1013.64
2016-09-28T08:44:26.221Z,1013.68
2016-09-28T08:45:26.155Z,1013.68
2016-09-28T08:46:26.119Z,1013.71
2016-09-28T08:47:26.453Z,1013.74
2016-09-28T08:48:26.061Z,1013.78
2016-09-28T08:49:26.286Z,1013.74
2016-09-28T08:50:26.534Z,1013.87
2016-09-28T08:51:26.139Z,1013.86
2016-09-28T08:52:26.430Z,1013.74
2016-09-28T08:53:26.228Z,1013.69
2016-09-28T08:54:26.359Z,1013.65
2016-09-28T08:55:26.684Z,1013.7
2016-09-28T08:56:26.272Z,1013.73
2016-09-28T08:57:26.279Z,1013.72
2016-09-28T08:58:26.620Z,1013.75
2016-09-28T08:59:26.263Z,1013.79
2016-09-28T09:00:26.412Z,1013.79
2016-09-28T09:01:26.535Z,1013.86
2016-09-28T09:02:26.337Z,1013.82
2016-09-28T09:03:26.700Z,1013.84
2016-09-28T09:04:26.576Z,1013.82
2016-09-28T09:05:26.423Z,1013.81
2016-09-28T09:06:26.760Z,1013.8
2016-09-28T09:07:26.558Z,1013.81
2016-09-28T09:08:26.741Z,1013.77
2016-09-28T09:09:26.520Z,1013.82
2016-09-28T09:10:26.628Z,1013.86
2016-09-28T09:11:26.791Z,1013.89
2016-09-28T09:12:27.079Z,1013.8
2016-09-28T09:13:26.688Z,1013.69
2016-09-28T09:14:26.703Z,1013.79
2016-09-28T09:15:27.059Z,1013.86
2016-09-28T09:16:26.693Z,1013.77
2016-09-28T09:17:26.844Z,1013.78
2016-09-28T09:18:26.781Z,1013.71
2016-09-28T09:19:26.800Z,1013.71
2016-09-28T09:20:26.889Z,1013.83
2016-09-28T09:21:26.953Z,1013.81
2016-09-28T09:22:26.878Z,1013.73
2016-09-28T09:23:26.954Z,1013.73
2016-09-28T09:24:27.359Z,1013.73
2016-09-28T09:25:27.143Z,1013.65
2016-09-28T09:26:27.320Z,1013.66
2016-09-28T09:27:27.088Z,1013.7
2016-09-28T09:28:27.149Z,1013.76
2016-09-28T09:29:27.054Z,1013.77
2016-09-28T09:30:27.400Z,1013.78
2016-09-28T09:31:27.007Z,1013.84
2016-09-28T09:32:27.081Z,1013.79
2016-09-28T09:33:27.056Z,1013.85
2016-09-28T09:34:27.029Z,1013.82
2016-09-28T09:35:27.255Z,1013.75
2016-09-28T09:36:27.412Z,1013.71
2016-09-28T09:37:27.160Z,1013.74
2016-09-28T09:38:27.916Z,1013.67
2016-09-28T09:39:27.364Z,1013.64
2016-09-28T09:40:27.247Z,1013.62
2016-09-28T09:41:27.809Z,1013.65
2016-09-28T09:42:27.640Z,1013.77
2016-09-28T09:43:27.281Z,1013.71
2016-09-28T09:44:27.314Z,1013.62
2016-09-28T09:45:27.546Z,1013.54
2016-09-28T09:46:27.530Z,1013.53
2016-09-28T09:47:27.527Z,1013.57
2016-09-28T09:48:27.368Z,1013.57
2016-09-28T09:49:27.540Z,1013.51
2016-09-28T09:50:27.478Z,1013.5
2016-09-28T09:51:27.624Z,1013.47
2016-09-28T09:52:27.670Z,1013.47
2016-09-28T09:53:27.497Z,1013.55
2016-09-28T09:54:28.149Z,1013.61
2016-09-28T09:55:27.583Z,1013.54
2016-09-28T09:56:27.752Z,1013.55
2016-09-28T09:57:27.825Z,1013.51
2016-09-28T09:58:27.610Z,1013.51
2016-09-28T09:59:27.992Z,1013.48
2016-09-28T10:00:27.614Z,1013.4
2016-09-28T10:01:27.852Z,1013.45
2016-09-28T10:02:27.781Z,1013.53
2016-09-28T10:03:27.749Z,1013.43
2016-09-28T10:04:27.946Z,1013.45
2016-09-28T10:05:27.964Z,1013.54
2016-09-28T10:06:28.202Z,1013.51
2016-09-28T10:07:28.090Z,1013.47
2016-09-28T10:08:27.874Z,1013.43
2016-09-28T10:09:28.208Z,1013.41
2016-09-28T10:10:27.905Z,1013.37
2016-09-28T10:11:28.082Z,1013.45
2016-09-28T10:12:28.057Z,1013.38
2016-09-28T10:13:28.053Z,1013.45
2016-09-28T10:14:28.193Z,1013.45
2016-09-28T10:15:28.305Z,1013.43
2016-09-28T10:16:28.252Z,1013.43
2016-09-28T10:17:28.283Z,1013.56
2016-09-28T10:18:28.377Z,1013.48
2016-09-28T10:19:28.144Z,1013.43
2016-09-28T10:20:28.587Z,1013.39
2016-09-28T10:21:28.188Z,1013.43
2016-09-28T10:22:28.300Z,1013.39
2016-09-28T10:23:28.537Z,1013.39
2016-09-28T10:24:28.363Z,1013.38
2016-09-28T10:25:28.242Z,1013.41
2016-09-28T10:26:28.457Z,1013.42
2016-09-28T10:27:28.453Z,1013.43
2016-09-28T10:28:28.327Z,1013.45
2016-09-28T10:29:28.295Z,1013.45
2016-09-28T10:30:28.754Z,1013.55
2016-09-28T10:31:28.467Z,1013.42
2016-09-28T10:32:28.601Z,1013.46
2016-09-28T10:33:28.453Z,1013.48
2016-09-28T10:34:28.595Z,1013.51
2016-09-28T10:35:28.717Z,1013.39
2016-09-28T10:36:28.595Z,1013.47
2016-09-28T10:37:28.681Z,1013.44
2016-09-28T10:38:28.629Z,1013.48
2016-09-28T10:39:28.838Z,1013.41
2016-09-28T10:40:28.947Z,1013.45
2016-09-28T10:41:28.769Z,1013.41
2016-09-28T10:42:28.884Z,1013.42
2016-09-28T10:43:29.254Z,1013.44
2016-09-28T10:44:28.867Z,1013.49
2016-09-28T10:45:28.744Z,1013.42
2016-09-28T10:46:29.107Z,1013.35
2016-09-28T10:47:29.012Z,1013.46
2016-09-28T10:48:29.047Z,1013.49
2016-09-28T10:49:28.770Z,1013.43
2016-09-28T10:50:28.807Z,1013.43
2016-09-28T10:51:29.144Z,1013.42
2016-09-28T10:52:29.211Z,1013.51
2016-09-28T10:53:29.021Z,1013.51
2016-09-28T10:54:29.000Z,1013.54
2016-09-28T10:55:29.449Z,1013.49
2016-09-28T10:56:28.992Z,1013.38
2016-09-28T10:57:28.999Z,1013.43
2016-09-28T10:58:29.262Z,1013.46
2016-09-28T10:59:29.059Z,1013.44
2016-09-28T11:00:29.120Z,1013.41
2016-09-28T11:01:29.171Z,1013.42
2016-09-28T11:02:29.327Z,1013.42
2016-09-28T11:03:29.126Z,1013.45
2016-09-28T11:04:29.133Z,1013.4
2016-09-28T11:05:29.327Z,1013.38
2016-09-28T11:06:29.395Z,1013.4
2016-09-28T11:07:29.673Z,1013.42
2016-09-28T11:08:29.622Z,1013.42
2016-09-28T11:09:29.497Z,1013.47
2016-09-28T11:10:29.961Z,1013.37
2016-09-28T11:11:29.507Z,1013.4
2016-09-28T11:12:29.599Z,1013.43
2016-09-28T11:13:29.424Z,1013.46
2016-09-28T11:14:29.411Z,1013.52
2016-09-28T11:15:29.423Z,1013.47
2016-09-28T11:16:29.496Z,1013.44
2016-09-28T11:17:29.768Z,1013.39
2016-09-28T11:18:29.698Z,1013.41
2016-09-28T11:19:29.561Z,1013.38
2016-09-28T11:20:29.517Z,1013.48
2016-09-28T11:21:30.436Z,1013.45
2016-09-28T11:22:29.689Z,1013.51
2016-09-28T11:23:29.721Z,1013.39
2016-09-28T11:24:29.906Z,1013.39
2016-09-28T11:25:29.631Z,1013.39
2016-09-28T11:26:29.661Z,1013.39
2016-09-28T11:27:29.776Z,1013.42
2016-09-28T11:28:29.834Z,1013.4
2016-09-28T11:29:29.793Z,1013.48
2016-09-28T11:30:29.829Z,1013.51
2016-09-28T11:31:29.843Z,1013.5
2016-09-28T11:32:29.800Z,1013.51
2016-09-28T11:33:29.823Z,1013.54
2016-09-28T11:34:30.114Z,1013.5
2016-09-28T11:35:29.946Z,1013.5
2016-09-28T11:36:29.989Z,1013.54
2016-09-28T11:37:29.977Z,1013.58
2016-09-28T11:38:30.128Z,1013.56
2016-09-28T11:39:30.014Z,1013.51
2016-09-28T11:40:30.286Z,1013.5
2016-09-28T11:41:30.647Z,1013.56
2016-09-28T11:42:30.655Z,1013.54
2016-09-28T11:43:30.350Z,1013.54
2016-09-28T11:44:30.513Z,1013.55
2016-09-28T11:45:30.264Z,1013.56
2016-09-28T11:46:30.384Z,1013.54
2016-09-28T11:47:30.536Z,1013.59
2016-09-28T11:48:30.581Z,1013.58
2016-09-28T11:49:30.178Z,1013.65
2016-09-28T11:50:30.332Z,1013.58
2016-09-28T11:51:30.562Z,1013.49
2016-09-28T11:52:30.842Z,1013.43
2016-09-28T11:53:30.519Z,1013.5
2016-09-28T11:54:30.371Z,1013.53
2016-09-28T11:55:30.357Z,1013.46
2016-09-28T11:56:30.569Z,1013.45
2016-09-28T11:57:31.183Z,1013.42
2016-09-28T11:58:30.559Z,1013.46
2016-09-28T11:59:30.916Z,1013.42
2016-09-28T12:00:30.504Z,1013.42
2016-09-28T12:01:30.625Z,1013.36
2016-09-28T12:02:30.703Z,1013.34
2016-09-28T12:03:30.626Z,1013.36
2016-09-28T12:04:30.579Z,1013.36
2016-09-28T12:05:30.828Z,1013.28
2016-09-28T12:06:30.617Z,1013.28
2016-09-28T12:07:30.689Z,1013.39